Time;durP1;ratioP1;P1;durP2;ratioP2;P2;SDS_P1;SDS_P2;PMS_P1;PMS_P2;Temp;Humidity;BMP_temperature;BMP_pressure;BME280_temperature;BME280_humidity;BME280_pressure;Samples;Min_cycle;Max_cycle;Signal;HPM_P1;HPM_P2
2023/02/28 00:00:24;;;;;;;0.30;0.30;;;;;;;7.72;100.00;100031.38;5036578;28;20140;-63
2023/02/28 00:02:50;;;;;;;0.20;0.20;;;;;;;7.77;100.00;100031.97;5036307;28;20064;-62
2023/02/28 00:05:20;;;;;;;0.20;0.20;;;;;;;7.76;100.00;100035.88;5019866;28;20090;-63
2023/02/28 00:07:46;;;;;;;0.20;0.20;;;;;;;7.76;100.00;100032.31;5036320;28;20033;-62
2023/02/28 00:10:15;;;;;;;0.30;0.30;;;;;;;7.79;100.00;100032.44;5036420;28;20031;-63
2023/02/28 00:12:41;;;;;;;0.20;0.20;;;;;;;7.84;100.00;100036.94;5036971;28;20032;-62
2023/02/28 00:15:09;;;;;;;0.28;0.28;;;;;;;7.77;100.00;100034.72;5036366;28;20559;-62
2023/02/28 00:17:36;;;;;;;0.20;0.20;;;;;;;7.71;100.00;100030.59;5020405;28;20044;-62
2023/02/28 00:20:04;;;;;;;0.20;0.20;;;;;;;7.73;100.00;100036.59;5036304;28;20033;-62
2023/02/28 00:22:30;;;;;;;0.20;0.20;;;;;;;7.73;100.00;100042.13;5054053;28;20372;-62
2023/02/28 00:24:56;;;;;;;0.30;0.30;;;;;;;7.72;100.00;100037.72;5036001;28;20032;-62
2023/02/28 00:27:21;;;;;;;0.30;0.30;;;;;;;7.77;100.00;100054.13;5036215;28;20067;-62
2023/02/28 00:29:47;;;;;;;0.30;0.30;;;;;;;7.83;100.00;100047.22;5035951;28;20029;-62
2023/02/28 00:32:13;;;;;;;0.30;0.30;;;;;;;7.86;100.00;100046.50;5036133;28;20082;-63
2023/02/28 00:34:39;;;;;;;0.20;0.20;;;;;;;7.66;100.00;100018.94;5035818;28;20471;-62
2023/02/28 00:37:06;;;;;;;0.20;0.20;;;;;;;7.85;100.00;100050.44;5036125;28;20041;-62
2023/02/28 00:39:34;;;;;;;0.30;0.30;;;;;;;7.85;100.00;100055.16;5036124;28;20031;-62
2023/02/28 00:41:59;;;;;;;0.20;0.20;;;;;;;7.93;100.00;100057.00;5035815;28;20033;-62
2023/02/28 00:44:25;;;;;;;0.20;0.20;;;;;;;7.88;100.00;100060.81;5035934;28;20036;-62
2023/02/28 00:46:51;;;;;;;0.20;0.20;;;;;;;7.88;100.00;100054.44;5036241;28;20371;-62
2023/02/28 00:49:19;;;;;;;0.20;0.20;;;;;;;7.88;100.00;100060.00;5035961;28;20029;-62
2023/02/28 00:51:45;;;;;;;0.30;0.30;;;;;;;7.76;100.00;100024.00;5035619;28;20033;-62
2023/02/28 00:54:10;;;;;;;0.20;0.20;;;;;;;7.94;100.00;100053.09;5036004;28;20033;-62
2023/02/28 00:56:36;;;;;;;0.20;0.20;;;;;;;7.88;100.00;100044.22;5035358;28;20511;-62
2023/02/28 00:59:01;;;;;;;0.30;0.30;;;;;;;7.92;100.00;100049.03;5038332;28;20036;-62
2023/02/28 01:01:27;;;;;;;0.20;0.20;;;;;;;7.90;100.00;100040.28;5039673;28;20043;-62
2023/02/28 01:03:52;;;;;;;0.20;0.20;;;;;;;7.89;100.00;100050.56;5039659;28;20033;-62
2023/02/28 01:06:18;;;;;;;0.30;0.30;;;;;;;7.86;100.00;100052.03;5040149;28;20032;-62
2023/02/28 01:08:43;;;;;;;0.20;0.20;;;;;;;7.82;100.00;100048.34;5039605;28;20028;-62
2023/02/28 01:11:11;;;;;;;0.20;0.20;;;;;;;7.78;100.00;100044.69;5039657;28;20032;-62
2023/02/28 01:13:37;;;;;;;0.20;0.20;;;;;;;7.77;100.00;100048.56;5040024;28;20052;-62
2023/02/28 01:16:03;;;;;;;0.30;0.30;;;;;;;7.78;100.00;100039.13;5039382;28;20471;-62
2023/02/28 01:18:28;;;;;;;0.20;0.20;;;;;;;7.75;100.00;100037.06;5039324;28;20025;-62
2023/02/28 01:20:54;;;;;;;0.20;0.20;;;;;;;7.78;100.00;100039.13;5039484;28;20051;-62
2023/02/28 01:23:23;;;;;;;0.20;0.20;;;;;;;7.74;100.00;100035.44;5039264;28;20037;-62
2023/02/28 01:25:49;;;;;;;0.30;0.30;;;;;;;7.73;100.00;100036.59;5039710;28;20047;-62
2023/02/28 01:28:14;;;;;;;0.20;0.20;;;;;;;7.75;100.00;100033.47;5039525;28;20037;-62
2023/02/28 01:30:40;;;;;;;0.20;0.20;;;;;;;7.68;100.00;100028.53;5039888;28;20032;-62
2023/02/28 01:33:05;;;;;;;0.20;0.20;;;;;;;7.63;100.00;100031.53;5040743;28;20067;-62
2023/02/28 01:35:35;;;;;;;0.22;0.22;;;;;;;7.63;100.00;100026.00;5040481;28;20119;-68
2023/02/28 01:38:02;;;;;;;0.20;0.20;;;;;;;7.59;100.00;100027.81;5056521;28;20061;-62
2023/02/28 01:40:27;;;;;;;0.20;0.20;;;;;;;7.53;100.00;100031.97;5057709;28;20037;-62
2023/02/28 01:42:55;;;;;;;0.20;0.20;;;;;;;7.48;100.00;100026.69;5039188;28;20025;-62
2023/02/28 01:45:29;;;;;;;0.30;0.30;;;;;;;7.51;100.00;100023.19;5039166;28;20021;-62
2023/02/28 01:48:05;;;;;;;0.30;0.30;;;;;;;7.51;100.00;100023.19;5039309;28;20040;-62
2023/02/28 01:50:37;;;;;;;0.20;0.20;;;;;;;7.48;100.00;100023.91;5038679;28;20021;-61
2023/02/28 01:53:08;;;;;;;0.30;0.30;;;;;;;7.58;100.00;100023.44;5022817;28;20033;-61
2023/02/28 01:55:34;;;;;;;0.20;0.20;;;;;;;7.50;100.00;100011.31;5056764;28;20029;-62
2023/02/28 01:58:04;;;;;;;0.20;0.20;;;;;;;7.47;100.00;100016.75;5039031;28;20040;-62
2023/02/28 02:00:31;;;;;;;0.20;0.20;;;;;;;7.48;100.00;100012.84;5039545;28;20091;-61
2023/02/28 02:03:07;;;;;;;0.20;0.20;;;;;;;7.51;100.00;100009.34;5022403;28;20037;-64
2023/02/28 02:05:33;;;;;;;0.20;0.20;;;;;;;7.57;100.00;100013.53;5038445;28;20025;-61
2023/02/28 02:08:05;;;;;;;0.30;0.30;;;;;;;7.95;98.67;100020.66;5038385;28;20086;-63
2023/02/28 02:10:35;;;;;;;0.30;0.30;;;;;;;7.89;95.71;100022.84;5038093;28;20510;-63
2023/02/28 02:13:20;;;;;;;0.20;0.20;;;;;;;7.83;96.14;100024.25;5038607;28;20032;-64
2023/02/28 02:16:12;;;;;;;0.30;0.30;;;;;;;7.62;96.55;99996.69;5038203;28;20435;-64
2023/02/28 02:18:57;;;;;;;0.20;0.20;;;;;;;7.71;97.50;100021.47;5038228;28;20078;-64
2023/02/28 02:22:02;;;;;;;0.20;0.20;;;;;;;7.65;97.82;100015.34;5038421;28;20086;-64
2023/02/28 02:24:52;;;;;;;0.30;0.30;;;;;;;7.61;98.71;100006.13;5038112;28;20471;-64
2023/02/28 02:27:36;;;;;;;0.30;0.30;;;;;;;7.64;98.17;100015.72;5038942;28;20099;-63
2023/02/28 02:30:29;;;;;;;0.30;0.30;;;;;;;7.62;98.35;100013.31;5038532;28;20361;-63
2023/02/28 02:33:16;;;;;;;0.20;0.20;;;;;;;7.58;98.55;100012.38;5038551;28;20487;-64
2023/02/28 02:36:04;;;;;;;0.30;0.30;;;;;;;7.55;98.70;100013.06;5037880;28;20032;-63
2023/02/28 02:38:38;;;;;;;0.40;0.40;;;;;;;7.54;99.37;100023.31;5021931;28;20037;-63
2023/02/28 02:41:13;;;;;;;0.20;0.20;;;;;;;7.64;98.45;100010.97;5038171;28;20025;-64
2023/02/28 02:44:02;;;;;;;0.20;0.20;;;;;;;7.68;99.68;100016.66;5037709;28;20036;-64
2023/02/28 02:46:38;;;;;;;0.30;0.30;;;;;;;7.53;98.89;100021.72;5038356;28;20032;-64
2023/02/28 02:49:08;;;;;;;0.30;0.30;;;;;;;7.68;99.51;100025.75;5038277;28;20068;-63
2023/02/28 02:51:36;;;;;;;0.30;0.30;;;;;;;7.49;99.04;100023.56;5037543;28;20017;-64
2023/02/28 02:54:07;;;;;;;0.20;0.20;;;;;;;7.54;99.92;100017.78;5037401;28;20037;-63
2023/02/28 02:56:38;;;;;;;0.20;0.20;;;;;;;7.53;98.67;100020.91;5037441;28;20049;-64
2023/02/28 02:59:09;;;;;;;0.30;0.30;;;;;;;7.48;99.58;100016.41;5037451;28;20032;-64
2023/02/28 03:01:37;;;;;;;0.30;0.30;;;;;;;7.55;100.00;100008.31;5037696;28;20445;-63
2023/02/28 03:04:11;;;;;;;0.20;0.20;;;;;;;7.49;99.23;99997.84;5037364;28;20025;-63
2023/02/28 03:06:37;;;;;;;0.30;0.30;;;;;;;7.48;99.68;100010.88;5055203;28;20033;-63
2023/02/28 03:09:04;;;;;;;0.30;0.30;;;;;;;7.28;99.11;99987.69;5021379;28;20036;-63
2023/02/28 03:11:30;;;;;;;0.20;0.20;;;;;;;7.41;99.02;100005.13;5037432;28;20055;-64
2023/02/28 03:14:10;;;;;;;0.20;0.20;;;;;;;7.32;98.75;100005.22;5037655;28;20467;-63
2023/02/28 03:16:58;;;;;;;0.30;0.30;;;;;;;7.40;99.46;100010.97;5037106;28;20029;-64
2023/02/28 03:19:38;;;;;;;0.20;0.20;;;;;;;7.20;99.07;99979.50;5036668;28;20479;-63
2023/02/28 03:22:19;;;;;;;0.20;0.20;;;;;;;7.30;98.49;100003.97;5036376;28;20116;-63
2023/02/28 03:24:53;;;;;;;0.30;0.30;;;;;;;7.33;98.23;100004.06;5037004;28;20623;-63
2023/02/28 03:27:38;;;;;;;0.20;0.20;;;;;;;7.28;98.00;99997.94;5036967;28;20025;-64
2023/02/28 03:30:44;;;;;;;0.30;0.30;;;;;;;7.33;97.83;99998.53;5055259;28;20075;-64
2023/02/28 03:33:23;;;;;;;0.30;0.30;;;;;;;7.34;97.13;99997.38;5037180;28;20037;-64
2023/02/28 03:35:59;;;;;;;0.30;0.30;;;;;;;7.41;96.29;100001.53;5036801;28;20060;-64
2023/02/28 03:38:50;;;;;;;0.20;0.20;;;;;;;7.38;96.18;100005.00;5037178;28;20425;-63
2023/02/28 03:41:16;;;;;;;0.20;0.20;;;;;;;7.07;95.39;99964.84;5037018;28;20368;-63
2023/02/28 03:43:48;;;;;;;0.20;0.20;;;;;;;7.31;96.87;100009.16;5036665;28;20036;-64
2023/02/28 03:46:21;;;;;;;0.20;0.20;;;;;;;7.30;97.41;100007.53;5036307;28;20029;-64
2023/02/28 03:48:55;;;;;;;0.20;0.20;;;;;;;7.25;97.40;100010.53;5054752;28;20040;-63
2023/02/28 03:51:22;;;;;;;;;;;;;;;7.29;96.78;100010.63;5037501;28;20025;-63
2023/02/28 03:53:53;;;;;;;0.30;0.30;;;;;;;7.24;97.52;100008.88;5036980;28;20381;-63
2023/02/28 03:56:33;;;;;;;0.20;0.20;;;;;;;7.28;96.88;100003.47;5036439;28;20446;-63
2023/02/28 03:59:25;;;;;;;0.20;0.20;;;;;;;7.17;96.35;100008.66;5036960;28;20027;-63
2023/02/28 04:01:51;;;;;;;0.30;0.30;;;;;;;7.13;96.67;100001.38;5036916;28;20040;-64
2023/02/28 04:04:20;;;;;;;0.20;0.20;;;;;;;7.15;97.28;100010.97;5036334;28;20029;-63
2023/02/28 04:06:50;;;;;;;0.20;0.20;;;;;;;7.11;97.38;100003.69;5054120;28;20035;-63
2023/02/28 04:09:15;;;;;;;0.30;0.30;;;;;;;7.08;98.01;100002.41;5036238;28;20017;-64
2023/02/28 04:11:51;;;;;;;0.20;0.20;;;;;;;7.12;98.13;100008.88;5036118;28;20028;-63
2023/02/28 04:14:20;;;;;;;0.20;0.20;;;;;;;7.09;97.44;100021.47;5036704;28;20048;-63
2023/02/28 04:16:46;;;;;;;0.20;0.20;;;;;;;7.14;98.14;100006.59;5036136;28;20511;-64
2023/02/28 04:19:13;;;;;;;0.20;0.20;;;;;;;7.11;97.99;100009.22;5036126;28;20121;-64
2023/02/28 04:21:44;;;;;;;0.20;0.20;;;;;;;7.14;97.62;100012.13;5036057;28;20025;-63
2023/02/28 04:24:14;;;;;;;0.20;0.20;;;;;;;7.12;97.76;100006.13;5053585;28;20025;-63
2023/02/28 04:26:43;;;;;;;0.20;0.20;;;;;;;7.23;97.37;100001.75;5036483;28;20025;-63
2023/02/28 04:29:09;;;;;;;0.20;0.20;;;;;;;7.21;97.13;100006.03;5036291;28;20029;-63
2023/02/28 04:31:35;;;;;;;0.30;0.30;;;;;;;7.18;97.44;100009.47;5036435;28;20103;-64
2023/02/28 04:34:01;;;;;;;0.20;0.20;;;;;;;7.18;97.76;100015.81;5036195;28;20476;-64
2023/02/28 04:36:27;;;;;;;0.30;0.30;;;;;;;7.20;97.75;100019.06;5036411;28;20033;-63
2023/02/28 04:38:53;;;;;;;0.20;0.20;;;;;;;7.17;98.00;100016.16;5036798;28;20032;-64
2023/02/28 04:41:19;;;;;;;0.20;0.20;;;;;;;7.29;97.17;100010.63;5037083;28;20047;-64
2023/02/28 04:43:45;;;;;;;0.30;0.30;;;;;;;7.12;97.47;100017.19;5019503;28;20029;-63
2023/02/28 04:46:11;;;;;;;0.20;0.20;;;;;;;7.16;97.41;100029.19;5035749;28;20033;-64
2023/02/28 04:48:39;;;;;;;0.22;0.22;;;;;;;7.16;96.91;100023.66;5036255;28;20025;-64
2023/02/28 04:51:10;;;;;;;0.20;0.20;;;;;;;7.22;97.59;100016.75;5036133;28;20052;-63
2023/02/28 04:53:37;;;;;;;0.20;0.20;;;;;;;7.12;96.62;99986.75;5035968;28;20112;-65
2023/02/28 04:56:04;;;;;;;0.20;0.20;;;;;;;7.25;96.48;100015.25;5035387;28;20134;-64
2023/02/28 04:58:30;;;;;;;0.20;0.20;;;;;;;7.23;96.17;100018.34;5036442;28;20064;-61
2023/02/28 05:01:03;;;;;;;0.20;0.20;;;;;;;7.25;95.77;100018.03;5036141;28;20056;-61
2023/02/28 05:03:28;;;;;;;0.20;0.20;;;;;;;7.05;95.46;99984.56;5035671;28;20028;-61
2023/02/28 05:05:54;;;;;;;0.20;0.20;;;;;;;7.13;96.04;100007.72;5035903;28;20029;-62
2023/02/28 05:08:19;;;;;;;0.30;0.30;;;;;;;7.13;95.77;100007.72;5035987;28;20132;-61
2023/02/28 05:10:44;;;;;;;0.20;0.20;;;;;;;7.13;96.06;100001.38;5035972;28;20456;-62
2023/02/28 05:13:12;;;;;;;0.20;0.20;;;;;;;7.12;96.38;100006.13;5035439;28;20055;-61
2023/02/28 05:15:38;;;;;;;0.20;0.20;;;;;;;7.21;95.81;100003.25;5036336;28;20040;-64
2023/02/28 05:18:03;;;;;;;0.20;0.20;;;;;;;7.34;93.90;100007.63;5035757;28;20091;-62
2023/02/28 05:20:29;;;;;;;0.30;0.30;;;;;;;7.58;91.82;99998.53;5036137;28;20025;-64
2023/02/28 05:22:54;;;;;;;0.25;0.25;;;;;;;7.90;88.81;100001.50;5036193;28;20024;-62
2023/02/28 05:25:22;;;;;;;0.20;0.20;;;;;;;7.84;88.43;100004.50;5035563;28;20025;-62
2023/02/28 05:27:48;;;;;;;0.20;0.20;;;;;;;7.79;88.41;99999.19;5053888;28;20025;-63
2023/02/28 05:30:13;;;;;;;0.30;0.30;;;;;;;7.81;88.57;100005.19;5036590;28;20041;-65
2023/02/28 05:32:42;;;;;;;0.20;0.20;;;;;;;7.84;88.79;100003.69;5037377;28;20032;-63
2023/02/28 05:35:10;;;;;;;0.20;0.20;;;;;;;7.87;88.05;100000.22;5037503;28;20131;-62
2023/02/28 05:37:39;;;;;;;0.20;0.20;;;;;;;7.80;88.46;100000.81;5037365;28;20033;-65
2023/02/28 05:40:07;;;;;;;0.20;0.20;;;;;;;7.74;89.48;99996.66;5035124;28;20033;-63
2023/02/28 05:42:35;;;;;;;0.30;0.30;;;;;;;7.75;89.98;99992.72;5019127;28;20032;-62
2023/02/28 05:45:00;;;;;;;0.20;0.20;;;;;;;7.70;90.84;100012.34;5037721;28;20459;-62
2023/02/28 05:47:26;;;;;;;0.20;0.20;;;;;;;7.77;91.97;100015.34;5039412;28;20032;-62
2023/02/28 05:49:51;;;;;;;0.20;0.20;;;;;;;7.74;91.12;100007.75;5038370;28;20445;-62
2023/02/28 05:52:17;;;;;;;0.30;0.30;;;;;;;7.80;91.24;100014.66;5039062;28;20112;-62
2023/02/28 05:54:45;;;;;;;0.30;0.30;;;;;;;7.91;90.58;100012.22;5039093;28;20468;-62
2023/02/28 05:57:11;;;;;;;0.20;0.20;;;;;;;8.37;86.57;100021.16;5038235;28;20048;-63
2023/02/28 05:59:40;;;;;;;0.20;0.20;;;;;;;8.54;86.38;100015.28;5039147;28;20036;-63
2023/02/28 06:02:16;;;;;;;0.20;0.20;;;;;;;8.99;85.74;100021.66;5038588;28;20024;-62
2023/02/28 06:04:43;;;;;;;0.20;0.20;;;;;;;9.41;84.57;100022.75;5038344;28;20032;-63
2023/02/28 06:07:10;;;;;;;0.20;0.20;;;;;;;9.82;81.88;100017.78;5056131;28;20036;-63
2023/02/28 06:09:36;;;;;;;0.20;0.20;;;;;;;10.20;81.02;100027.34;5022003;28;20025;-63
2023/02/28 06:12:05;;;;;;;0.20;0.20;;;;;;;10.64;79.35;100029.88;5039271;28;20032;-63
2023/02/28 06:14:31;;;;;;;0.30;0.30;;;;;;;11.13;77.00;100034.78;5056554;28;20029;-63
2023/02/28 06:17:00;;;;;;;0.30;0.30;;;;;;;11.75;73.16;100038.22;5038313;28;20475;-63
2023/02/28 06:19:27;;;;;;;0.25;0.25;;;;;;;12.36;70.75;100033.56;5038497;28;20430;-63
2023/02/28 06:21:56;;;;;;;0.20;0.20;;;;;;;12.91;67.67;100026.25;5038412;28;20024;-62
2023/02/28 06:24:23;;;;;;;0.20;0.20;;;;;;;13.40;63.67;100027.16;5038689;28;20021;-63
2023/02/28 06:26:51;;;;;;;0.30;0.30;;;;;;;13.86;62.14;100030.34;5038428;28;20094;-63
2023/02/28 06:29:18;;;;;;;0.20;0.20;;;;;;;14.34;58.47;100027.44;5038272;28;20033;-63
2023/02/28 06:31:47;;;;;;;0.20;0.20;;;;;;;14.87;57.01;100036.06;5038199;28;20025;-63
2023/02/28 06:34:13;;;;;;;0.30;0.30;;;;;;;15.23;53.79;100030.53;5038482;28;20476;-63
2023/02/28 06:36:40;;;;;;;0.20;0.20;;;;;;;15.73;53.06;100025.00;5038134;28;20040;-63
2023/02/28 06:39:07;;;;;;;0.20;0.20;;;;;;;16.30;51.66;100022.09;5055968;28;20017;-63
2023/02/28 06:41:37;;;;;;;0.20;0.20;;;;;;;16.47;49.82;100031.66;5037828;28;20464;-63
2023/02/28 06:44:12;;;;;;;0.20;0.20;;;;;;;16.45;48.97;100034.06;5055581;28;20029;-63
2023/02/28 06:46:42;;;;;;;0.20;0.20;;;;;;;16.68;49.33;100036.41;5038021;28;20483;-63
2023/02/28 06:49:08;;;;;;;0.20;0.20;;;;;;;17.29;47.20;100037.69;5037932;28;20033;-63
2023/02/28 06:51:35;;;;;;;0.20;0.20;;;;;;;17.41;45.25;100032.78;5037521;28;20489;-62
2023/02/28 06:54:00;;;;;;;0.20;0.20;;;;;;;17.81;46.18;100039.72;5037794;28;20541;-62
2023/02/28 06:56:29;;;;;;;0.25;0.25;;;;;;;17.62;46.51;100032.59;5035971;28;20049;-62
2023/02/28 06:58:55;;;;;;;0.20;0.20;;;;;;;18.12;44.66;100043.47;5037488;28;20082;-62
2023/02/28 07:01:24;;;;;;;0.20;0.20;;;;;;;18.00;42.90;100044.78;5037766;28;20083;-62
2023/02/28 07:03:51;;;;;;;0.20;0.20;;;;;;;18.47;43.21;100047.88;5037374;28;20121;-62
2023/02/28 07:06:19;;;;;;;0.20;0.20;;;;;;;18.28;43.11;100052.13;5036816;28;20471;-63
2023/02/28 07:08:44;;;;;;;0.20;0.20;;;;;;;18.73;41.86;100043.59;5020677;28;20035;-62
2023/02/28 07:11:10;;;;;;;0.20;0.20;;;;;;;19.44;41.18;100053.09;5036901;28;20033;-62
2023/02/28 07:13:36;;;;;;;0.20;0.20;;;;;;;19.59;38.17;100056.50;5036960;28;20075;-62
2023/02/28 07:16:05;;;;;;;0.20;0.20;;;;;;;19.83;40.08;100049.66;5037075;28;20068;-62
2023/02/28 07:18:31;;;;;;;0.20;0.20;;;;;;;20.16;39.23;100052.69;5054861;28;20035;-62
2023/02/28 07:20:57;;;;;;;0.20;0.20;;;;;;;20.52;38.20;100050.03;5036616;28;20029;-62
2023/02/28 07:23:23;;;;;;;0.20;0.20;;;;;;;20.57;37.89;100052.34;5020290;28;20025;-62
2023/02/28 07:25:50;;;;;;;0.20;0.20;;;;;;;19.61;36.33;100062.53;5037172;28;20082;-62
2023/02/28 07:28:16;;;;;;;0.20;0.20;;;;;;;19.47;37.64;100055.03;5037263;28;20118;-62
2023/02/28 07:30:41;;;;;;;0.20;0.20;;;;;;;19.75;37.31;100053.81;5036095;28;20502;-62
2023/02/28 07:33:07;;;;;;;0.20;0.20;;;;;;;19.23;37.54;100054.19;5036468;28;20029;-62
2023/02/28 07:35:33;;;;;;;0.20;0.20;;;;;;;19.76;37.43;100048.94;5037041;28;20126;-63
2023/02/28 07:37:59;;;;;;;0.20;0.20;;;;;;;18.97;37.69;100050.13;5036956;28;20366;-62
2023/02/28 07:40:25;;;;;;;0.20;0.20;;;;;;;18.00;40.70;100046.78;5036976;28;20033;-62
2023/02/28 07:42:50;;;;;;;0.20;0.20;;;;;;;18.53;39.47;100040.56;5037401;28;20467;-62
2023/02/28 07:45:19;;;;;;;0.25;0.25;;;;;;;19.52;39.58;100036.84;5037220;28;20067;-63
2023/02/28 07:47:45;;;;;;;0.20;0.20;;;;;;;19.69;36.80;100035.75;5036206;28;20029;-63
2023/02/28 07:50:14;;;;;;;0.20;0.20;;;;;;;20.46;36.01;100037.63;5036463;28;20033;-63
2023/02/28 07:52:40;;;;;;;0.20;0.20;;;;;;;20.56;36.30;100025.31;5036528;28;20406;-63
2023/02/28 07:55:08;;;;;;;0.20;0.20;;;;;;;21.00;36.55;100039.34;5036275;28;20033;-63
2023/02/28 07:57:33;;;;;;;0.20;0.20;;;;;;;21.32;34.77;100036.63;5035622;28;20450;-63
2023/02/28 07:59:59;;;;;;;0.20;0.20;;;;;;;21.51;33.96;100043.44;5035828;28;20033;-63
2023/02/28 08:02:25;;;;;;;0.20;0.20;;;;;;;21.42;33.48;100043.25;5036404;28;20089;-63
2023/02/28 08:04:51;;;;;;;0.20;0.20;;;;;;;21.75;35.06;100034.78;5053596;28;20063;-63
2023/02/28 08:07:17;;;;;;;0.20;0.20;;;;;;;20.04;36.07;100045.66;5035494;28;20025;-63
2023/02/28 08:09:44;;;;;;;0.15;0.15;;;;;;;20.80;35.38;100040.16;5035783;28;20104;-63
2023/02/28 08:12:11;;;;;;;0.20;0.20;;;;;;;21.41;34.66;100041.66;5036242;28;20029;-63
2023/02/28 08:14:37;;;;;;;0.20;0.20;;;;;;;21.05;35.35;100044.50;5035717;28;20490;-63
2023/02/28 08:17:04;;;;;;;0.20;0.20;;;;;;;19.58;35.93;100055.66;5035612;28;20057;-63
2023/02/28 08:19:30;;;;;;;0.20;0.20;;;;;;;18.99;37.52;100063.78;5036321;28;20439;-63
2023/02/28 08:21:58;;;;;;;0.20;0.20;;;;;;;16.65;41.01;100049.22;5036021;28;20040;-62
2023/02/28 08:24:24;;;;;;;0.20;0.20;;;;;;;17.20;41.51;100042.94;5020127;28;20060;-63
2023/02/28 08:26:50;;;;;;;0.20;0.20;;;;;;;16.99;41.22;100040.25;5036170;28;20067;-67
2023/02/28 08:29:15;;;;;;;0.20;0.20;;;;;;;17.34;41.57;100038.47;5036752;28;20033;-64
2023/02/28 08:31:41;;;;;;;0.20;0.20;;;;;;;16.46;41.65;100025.25;5036096;28;20463;-65
2023/02/28 08:34:09;;;;;;;0.20;0.20;;;;;;;16.96;41.68;100041.09;5036196;28;20576;-68
2023/02/28 08:36:35;;;;;;;0.20;0.20;;;;;;;17.23;40.65;100042.13;5035889;28;20119;-64
2023/02/28 08:39:01;;;;;;;0.20;0.20;;;;;;;17.11;41.48;100039.81;5036204;28;20067;-67
2023/02/28 08:41:26;;;;;;;0.20;0.20;;;;;;;16.29;42.72;100064.59;5035888;28;20086;-65
2023/02/28 08:43:53;;;;;;;0.20;0.20;;;;;;;16.03;42.91;100051.81;5035695;28;20040;-64
2023/02/28 08:46:22;;;;;;;0.20;0.20;;;;;;;16.50;43.62;100036.44;5035610;28;20061;-63
2023/02/28 08:48:51;;;;;;;0.20;0.20;;;;;;;16.07;44.06;100036.56;5035552;28;20037;-64
2023/02/28 08:51:25;;;;;;;0.20;0.20;;;;;;;15.98;44.43;100036.19;5035586;28;20467;-66
2023/02/28 08:53:52;;;;;;;0.20;0.20;;;;;;;16.29;43.40;100044.94;5053406;28;20170;-66
2023/02/28 08:56:18;;;;;;;0.20;0.20;;;;;;;16.14;43.28;100042.19;5035372;28;20110;-62
2023/02/28 08:58:46;;;;;;;0.20;0.20;;;;;;;16.53;43.60;100038.47;5036507;28;20466;-63
2023/02/28 09:01:15;;;;;;;0.20;0.20;;;;;;;16.22;44.39;100037.34;5019312;28;20039;-66
2023/02/28 09:03:45;;;;;;;0.20;0.20;;;;;;;16.61;42.92;100042.03;5035600;28;20036;-65
2023/02/28 09:06:12;;;;;;;0.20;0.20;;;;;;;16.87;42.55;100043.56;5036103;28;20036;-64
2023/02/28 09:08:38;;;;;;;0.20;0.20;;;;;;;16.43;42.79;100028.06;5053412;28;20061;-62
2023/02/28 09:11:06;;;;;;;0.20;0.20;;;;;;;16.23;44.19;100020.09;5035418;28;20471;-63
2023/02/28 09:13:32;;;;;;;0.20;0.20;;;;;;;16.65;43.20;100031.59;5035447;28;20025;-62
2023/02/28 09:16:00;;;;;;;0.20;0.20;;;;;;;16.29;43.76;100036.50;5036000;28;20039;-62
2023/02/28 09:18:26;;;;;;;0.20;0.20;;;;;;;16.04;43.49;100045.81;5035528;28;20021;-62
2023/02/28 09:20:52;;;;;;;0.20;0.20;;;;;;;15.86;44.96;100043.00;5039399;28;20095;-62
2023/02/28 09:23:20;;;;;;;0.20;0.20;;;;;;;15.84;44.65;100053.03;5039888;28;20035;-63
2023/02/28 09:25:51;;;;;;;0.20;0.20;;;;;;;15.40;45.84;100059.81;5039853;28;20453;-62
2023/02/28 09:28:16;;;;;;;0.20;0.20;;;;;;;15.01;47.54;100052.09;5039817;28;20025;-63
2023/02/28 09:30:45;;;;;;;0.20;0.20;;;;;;;14.99;47.25;100051.72;5039341;28;20459;-62
2023/02/28 09:33:11;;;;;;;0.20;0.20;;;;;;;14.96;47.80;100058.09;5039460;28;20383;-62
2023/02/28 09:35:37;;;;;;;0.20;0.20;;;;;;;14.83;47.96;100048.47;5039108;28;20083;-63
2023/02/28 09:38:03;;;;;;;0.20;0.20;;;;;;;14.79;48.83;100044.84;5038942;28;20471;-62
2023/02/28 09:40:28;;;;;;;0.20;0.20;;;;;;;14.81;48.44;100057.28;5039291;28;20040;-63
2023/02/28 09:42:56;;;;;;;0.20;0.20;;;;;;;14.70;49.29;100055.59;5022730;28;20464;-63
2023/02/28 09:45:41;;;;;;;0.20;0.20;;;;;;;14.70;49.61;100041.59;5056443;28;20471;-63
2023/02/28 09:48:15;;;;;;;0.20;0.20;;;;;;;14.40;50.40;100059.44;5039136;28;20025;-62
2023/02/28 09:50:49;;;;;;;0.28;0.28;;;;;;;14.24;50.47;100070.16;5038812;28;20037;-63
2023/02/28 09:53:38;;;;;;;0.20;0.20;;;;;;;14.13;51.16;100065.28;5039296;28;20027;-62
2023/02/28 09:56:38;;;;;;;0.20;0.20;;;;;;;13.99;51.41;100062.38;5038418;28;20048;-62
2023/02/28 09:59:18;;;;;;;0.20;0.20;;;;;;;13.88;52.44;100050.31;4996875;28;20492;-63
2023/02/28 10:01:59;;;;;;;0.20;0.20;;;;;;;13.74;53.25;100047.41;5038851;28;20471;-63
2023/02/28 10:04:44;;;;;;;0.20;0.20;;;;;;;13.92;53.47;100056.75;5039175;28;20025;-63
2023/02/28 10:07:42;;;;;;;0.20;0.20;;;;;;;13.84;53.17;100055.06;5038995;28;20424;-63
2023/02/28 10:10:33;;;;;;;0.30;0.30;;;;;;;13.85;53.78;100037.94;5038309;28;20067;-63
2023/02/28 10:13:02;;;;;;;0.20;0.20;;;;;;;13.93;55.47;100044.34;5038352;28;20482;-63
2023/02/28 10:15:31;;;;;;;0.20;0.20;;;;;;;13.84;54.25;100021.50;5021914;28;20033;-63
2023/02/28 10:18:01;;;;;;;0.20;0.20;;;;;;;13.93;54.77;100029.56;5022790;28;20029;-63
2023/02/28 10:20:31;;;;;;;0.20;0.20;;;;;;;14.37;53.35;100015.44;5038830;28;20120;-63
2023/02/28 10:23:19;;;;;;;0.20;0.20;;;;;;;14.76;54.21;100017.63;5056065;28;20353;-63
2023/02/28 10:26:13;;;;;;;0.20;0.20;;;;;;;15.13;50.57;100017.34;5038379;28;20451;-63
2023/02/28 10:28:43;;;;;;;0.30;0.30;;;;;;;15.74;48.92;100034.22;5037078;28;20128;-63
2023/02/28 10:31:17;;;;;;;0.20;0.20;;;;;;;15.28;49.28;100046.16;5038424;28;20421;-63
2023/02/28 10:33:43;;;;;;;0.20;0.20;;;;;;;15.18;50.06;100048.56;5038546;28;20444;-63
2023/02/28 10:36:16;;;;;;;0.20;0.20;;;;;;;14.95;50.37;100045.28;5038240;28;20111;-63
2023/02/28 10:38:43;;;;;;;0.20;0.20;;;;;;;15.10;50.39;100035.72;5037952;28;20094;-63
2023/02/28 10:41:15;;;;;;;0.20;0.20;;;;;;;14.80;50.34;100038.03;5037887;28;20025;-63
2023/02/28 10:43:44;;;;;;;0.20;0.20;;;;;;;14.74;50.00;100022.81;5034808;28;20131;-63
2023/02/28 10:46:10;;;;;;;0.20;0.20;;;;;;;15.05;49.93;100022.09;5038142;28;20029;-63
2023/02/28 10:48:44;;;;;;;0.20;0.20;;;;;;;14.87;49.91;100015.66;5038515;28;20033;-63
2023/02/28 10:51:16;;;;;;;0.20;0.20;;;;;;;15.01;49.82;100031.69;5038690;28;20116;-62
2023/02/28 10:53:50;;;;;;;0.20;0.20;;;;;;;15.38;49.36;100018.13;5038726;28;20055;-63
2023/02/28 10:56:21;;;;;;;0.20;0.20;;;;;;;15.63;47.86;100012.56;5037545;28;20534;-63
2023/02/28 10:58:57;;;;;;;0.20;0.20;;;;;;;15.75;47.57;99986.13;5037596;28;20021;-63
2023/02/28 11:01:32;;;;;;;0.20;0.20;;;;;;;15.63;48.13;99959.28;5037536;28;20074;-63
2023/02/28 11:03:58;;;;;;;0.20;0.20;;;;;;;15.89;46.70;99980.50;5037905;28;20078;-63
2023/02/28 11:06:31;;;;;;;0.20;0.20;;;;;;;16.10;46.77;99979.63;5038116;28;20425;-63
2023/02/28 11:09:00;;;;;;;0.20;0.20;;;;;;;16.23;46.05;99963.94;5037422;28;20471;-63
2023/02/28 11:11:30;;;;;;;0.20;0.20;;;;;;;16.51;45.59;99973.44;5037471;28;20159;-63
2023/02/28 11:14:04;;;;;;;0.20;0.20;;;;;;;16.84;43.91;99968.53;5037237;28;20029;-63
2023/02/28 11:16:37;;;;;;;0.20;0.20;;;;;;;17.29;43.26;99958.94;5037152;28;20033;-63
2023/02/28 11:19:06;;;;;;;0.20;0.20;;;;;;;17.58;43.34;99947.47;5037259;28;20021;-63
2023/02/28 11:21:40;;;;;;;0.20;0.20;;;;;;;17.83;41.92;99947.22;5037614;28;20438;-63
2023/02/28 11:24:24;;;;;;;;;;;;;;;17.87;41.49;99947.19;5037453;28;20544;-63
2023/02/28 11:26:49;;;;;;;0.20;0.20;;;;;;;17.33;42.21;99930.00;5037360;28;19997;-63
2023/02/28 11:29:22;;;;;;;0.20;0.20;;;;;;;17.29;41.77;99927.22;5037537;28;20030;-63
2023/02/28 11:32:19;;;;;;;0.20;0.20;;;;;;;17.24;40.98;99934.09;5036970;28;20052;-63
2023/02/28 11:34:47;;;;;;;0.20;0.20;;;;;;;17.16;42.15;99926.94;5036000;28;20091;-63
2023/02/28 11:37:17;;;;;;;0.20;0.20;;;;;;;16.70;42.49;99911.16;5036739;28;20060;-62
2023/02/28 11:39:44;;;;;;;0.20;0.20;;;;;;;16.77;43.54;99928.00;5037327;28;20371;-63
2023/02/28 11:42:21;;;;;;;0.20;0.20;;;;;;;16.29;44.79;99947.47;5036186;28;20029;-63